Time;durP1;ratioP1;P1;durP2;ratioP2;P2;SDS_P1;SDS_P2;PMS_P1;PMS_P2;Temp;Humidity;BMP_temperature;BMP_pressure;BME280_temperature;BME280_humidity;BME280_pressure;Samples;Min_cycle;Max_cycle;Signal;HPM_P1;HPM_P2
2020/12/09 00:00:12;;;;;;;0.50;0.50;;;2.10;99.90;;;;;;5072929;28;20204;-86
2020/12/09 00:02:39;;;;;;;0.50;0.50;;;2.20;99.90;;;;;;5072729;28;20965;-86
2020/12/09 00:05:08;;;;;;;0.50;0.50;;;2.10;99.90;;;;;;5072608;28;20314;-86
2020/12/09 00:07:35;;;;;;;0.50;0.50;;;2.10;99.90;;;;;;5072769;28;20207;-87
2020/12/09 00:10:03;;;;;;;0.50;0.50;;;2.10;99.90;;;;;;5072419;28;20211;-86
2020/12/09 00:12:32;;;;;;;0.50;0.50;;;2.10;99.90;;;;;;5071657;28;20627;-88
2020/12/09 00:15:01;;;;;;;0.50;0.50;;;2.10;99.90;;;;;;5072356;28;20542;-86
2020/12/09 00:17:29;;;;;;;0.50;0.50;;;2.10;99.90;;;;;;5072355;28;20228;-86
2020/12/09 00:19:55;;;;;;;0.50;0.50;;;2.20;99.90;;;;;;5072199;28;20226;-87
2020/12/09 00:22:23;;;;;;;0.50;0.50;;;2.10;99.90;;;;;;5072172;28;20205;-88
2020/12/09 00:24:55;;;;;;;0.50;0.50;;;2.10;99.90;;;;;;5072229;28;20200;-86
2020/12/09 00:27:21;;;;;;;0.50;0.50;;;2.20;99.90;;;;;;5072305;28;20885;-87
2020/12/09 00:29:47;;;;;;;0.50;0.50;;;2.10;99.90;;;;;;5072216;28;20204;-87
2020/12/09 00:32:14;;;;;;;0.50;0.50;;;2.10;99.90;;;;;;5072492;28;20249;-86
2020/12/09 00:34:40;;;;;;;0.50;0.50;;;2.10;99.90;;;;;;5071922;28;20364;-86
2020/12/09 00:37:06;;;;;;;0.50;0.50;;;2.10;99.90;;;;;;5071493;28;20216;-87
2020/12/09 00:39:33;;;;;;;0.50;0.50;;;2.10;99.90;;;;;;5071782;28;20229;-86
2020/12/09 00:42:00;;;;;;;0.50;0.50;;;2.10;99.90;;;;;;5071499;28;20552;-87
2020/12/09 00:44:26;;;;;;;0.50;0.50;;;2.10;99.90;;;;;;5071967;28;20253;-87
2020/12/09 00:46:52;;;;;;;0.50;0.50;;;2.10;99.90;;;;;;5071294;28;20638;-86
2020/12/09 00:49:19;;;;;;;0.50;0.50;;;2.10;99.90;;;;;;5071378;28;20199;-86
2020/12/09 00:51:45;;;;;;;0.50;0.50;;;2.10;99.90;;;;;;5071805;28;20249;-86
2020/12/09 00:54:11;;;;;;;0.50;0.50;;;2.10;99.90;;;;;;5071756;28;20208;-86
2020/12/09 00:56:42;;;;;;;0.50;0.50;;;2.10;99.90;;;;;;5071527;28;20249;-86
2020/12/09 00:59:08;;;;;;;0.50;0.50;;;2.20;99.90;;;;;;5071456;28;20228;-85
2020/12/09 01:01:34;;;;;;;0.50;0.50;;;2.20;99.90;;;;;;5071102;28;20779;-86
2020/12/09 01:04:00;;;;;;;0.50;0.50;;;2.20;99.90;;;;;;5076539;22;20274;-82
2020/12/09 01:06:27;;;;;;;0.50;0.50;;;2.20;99.90;;;;;;5048969;28;20250;-82
2020/12/09 01:08:54;;;;;;;0.50;0.50;;;2.20;99.90;;;;;;5054411;28;20297;-82
2020/12/09 01:11:21;;;;;;;0.50;0.50;;;2.20;99.90;;;;;;5069092;28;20246;-82
2020/12/09 01:13:48;;;;;;;0.50;0.50;;;2.30;99.90;;;;;;5068957;28;20199;-82
2020/12/09 01:16:15;;;;;;;0.50;0.50;;;2.30;99.90;;;;;;5069035;28;20199;-81
2020/12/09 01:18:41;;;;;;;0.47;0.47;;;2.30;99.90;;;;;;5068856;28;20219;-81
2020/12/09 01:21:07;;;;;;;0.50;0.50;;;2.40;99.90;;;;;;5068704;28;20227;-82
2020/12/09 01:23:34;;;;;;;0.50;0.50;;;2.30;99.90;;;;;;5067988;28;20199;-81
2020/12/09 01:26:00;;;;;;;0.50;0.50;;;2.30;99.90;;;;;;5068846;28;20242;-81
2020/12/09 01:28:26;;;;;;;0.50;0.50;;;2.30;99.90;;;;;;5068869;28;20269;-82
2020/12/09 01:30:52;;;;;;;0.50;0.50;;;2.30;99.90;;;;;;5068605;28;20567;-82
2020/12/09 01:33:18;;;;;;;0.50;0.50;;;2.30;99.90;;;;;;5068755;28;20196;-81
2020/12/09 01:35:44;;;;;;;0.50;0.50;;;2.40;99.90;;;;;;5068681;28;20203;-82
2020/12/09 01:38:11;;;;;;;0.50;0.50;;;2.30;99.90;;;;;;5068518;28;20639;-82
2020/12/09 01:40:37;;;;;;;0.50;0.50;;;2.40;99.90;;;;;;5068810;28;20239;-82
2020/12/09 01:43:09;;;;;;;0.50;0.50;;;2.40;99.90;;;;;;5068552;28;20223;-82
2020/12/09 01:45:35;;;;;;;0.50;0.50;;;2.40;99.90;;;;;;5068580;28;20674;-82
2020/12/09 01:48:04;;;;;;;0.50;0.50;;;2.40;99.90;;;;;;5068645;28;20195;-81
2020/12/09 01:50:30;;;;;;;0.50;0.50;;;2.40;99.90;;;;;;5068502;28;20614;-81
2020/12/09 01:52:56;;;;;;;0.50;0.50;;;2.40;99.90;;;;;;5068499;28;20235;-81
2020/12/09 01:55:22;;;;;;;0.50;0.50;;;2.40;99.90;;;;;;5068594;28;20208;-81
2020/12/09 01:57:49;;;;;;;0.50;0.50;;;2.40;99.90;;;;;;5068177;28;20215;-81
2020/12/09 02:00:15;;;;;;;0.50;0.50;;;2.50;99.90;;;;;;5068533;28;20658;-81
2020/12/09 02:02:42;;;;;;;0.50;0.50;;;2.50;99.90;;;;;;5068271;28;20249;-81
2020/12/09 02:05:08;;;;;;;0.50;0.50;;;2.50;99.90;;;;;;5068421;28;20238;-80
2020/12/09 02:07:34;;;;;;;0.50;0.50;;;2.50;99.90;;;;;;5068450;28;20196;-82
2020/12/09 02:10:01;;;;;;;0.50;0.50;;;2.50;99.90;;;;;;5068088;28;20717;-82
2020/12/09 02:12:28;;;;;;;0.50;0.50;;;2.50;99.90;;;;;;5068350;28;20291;-82
2020/12/09 02:14:55;;;;;;;0.50;0.50;;;2.50;99.90;;;;;;5068303;28;20293;-82
2020/12/09 02:17:21;;;;;;;0.50;0.50;;;2.50;99.90;;;;;;5068362;28;20200;-82
2020/12/09 02:19:47;;;;;;;0.50;0.50;;;2.50;99.90;;;;;;5068385;28;20565;-82
2020/12/09 02:22:14;;;;;;;0.50;0.50;;;2.50;99.90;;;;;;5068372;28;20204;-82
2020/12/09 02:24:40;;;;;;;0.50;0.50;;;2.50;99.90;;;;;;5068448;28;20204;-82
2020/12/09 02:27:07;;;;;;;0.50;0.50;;;2.40;99.90;;;;;;5066088;28;20200;-82
2020/12/09 02:29:33;;;;;;;0.50;0.50;;;2.40;99.90;;;;;;5068064;28;20200;-81
2020/12/09 02:31:59;;;;;;;0.50;0.50;;;2.40;99.90;;;;;;5068884;28;20568;-81
2020/12/09 02:34:25;;;;;;;0.50;0.50;;;2.50;99.90;;;;;;5068459;28;20640;-81
2020/12/09 02:36:51;;;;;;;0.50;0.50;;;2.50;99.90;;;;;;5072209;28;20227;-81
2020/12/09 02:39:29;;;;;;;0.45;0.45;;;2.50;99.90;;;;;;5072567;28;20251;-81
2020/12/09 02:41:55;;;;;;;0.50;0.50;;;2.50;99.90;;;;;;5072667;28;20207;-81
2020/12/09 02:44:21;;;;;;;0.50;0.50;;;2.50;99.90;;;;;;5072433;28;20200;-81
2020/12/09 02:46:48;;;;;;;0.50;0.50;;;2.50;99.90;;;;;;5071853;28;20204;-81
2020/12/09 02:49:14;;;;;;;0.50;0.50;;;2.60;99.90;;;;;;5071888;28;20234;-83
2020/12/09 02:51:40;;;;;;;0.50;0.50;;;2.50;99.90;;;;;;5071925;28;20203;-83
2020/12/09 02:54:06;;;;;;;0.50;0.50;;;2.50;99.90;;;;;;5071769;28;20235;-84
2020/12/09 02:56:33;;;;;;;0.50;0.50;;;2.60;99.90;;;;;;5072031;28;20238;-83
2020/12/09 02:58:59;;;;;;;0.50;0.50;;;2.50;99.90;;;;;;5071707;28;20258;-84
2020/12/09 03:01:25;;;;;;;0.50;0.50;;;2.50;99.90;;;;;;5071828;28;20223;-84
2020/12/09 03:03:51;;;;;;;0.50;0.50;;;2.50;99.90;;;;;;5071706;28;20235;-84
2020/12/09 03:06:17;;;;;;;0.50;0.50;;;2.60;99.90;;;;;;5071931;28;20200;-84
2020/12/09 03:08:44;;;;;;;0.50;0.50;;;2.60;99.90;;;;;;5071856;28;20266;-84
2020/12/09 03:11:10;;;;;;;0.50;0.50;;;2.60;99.90;;;;;;5071863;28;20225;-87
2020/12/09 03:13:37;;;;;;;0.50;0.50;;;2.50;99.90;;;;;;5071818;28;20642;-84
2020/12/09 03:16:03;;;;;;;0.50;0.50;;;2.40;99.90;;;;;;5071397;28;20803;-84
2020/12/09 03:18:30;;;;;;;0.50;0.50;;;2.50;99.90;;;;;;5071588;28;20216;-84
2020/12/09 03:20:56;;;;;;;0.50;0.50;;;2.50;99.90;;;;;;5071319;28;20234;-84
2020/12/09 03:23:23;;;;;;;0.50;0.50;;;2.50;99.90;;;;;;5071258;28;20576;-85
2020/12/09 03:25:50;;;;;;;0.50;0.50;;;2.50;99.90;;;;;;5071203;28;20200;-85
2020/12/09 03:28:16;;;;;;;0.40;0.40;;;2.50;99.90;;;;;;5071302;28;20279;-84
2020/12/09 03:30:43;;;;;;;0.50;0.50;;;2.50;99.90;;;;;;5071063;28;20200;-84
2020/12/09 03:33:09;;;;;;;0.50;0.50;;;2.50;99.90;;;;;;5071019;28;20231;-84
2020/12/09 03:35:36;;;;;;;0.50;0.50;;;2.50;99.90;;;;;;5071094;28;20200;-84
2020/12/09 03:38:02;;;;;;;0.50;0.50;;;2.50;99.90;;;;;;5070768;28;20226;-84
2020/12/09 03:40:28;;;;;;;0.50;0.50;;;2.50;99.90;;;;;;5070987;28;20235;-84
2020/12/09 03:42:54;;;;;;;0.50;0.50;;;2.50;99.90;;;;;;5070785;28;20241;-84
2020/12/09 03:45:22;;;;;;;0.50;0.50;;;2.50;99.90;;;;;;5070181;28;20196;-84
2020/12/09 03:47:49;;;;;;;0.50;0.50;;;2.50;99.90;;;;;;5070807;28;20200;-84
2020/12/09 03:50:15;;;;;;;0.50;0.50;;;2.60;99.90;;;;;;5070681;28;20618;-84
2020/12/09 03:52:41;;;;;;;0.50;0.50;;;2.60;99.90;;;;;;5070704;28;20643;-84
2020/12/09 03:55:07;;;;;;;0.50;0.50;;;2.50;99.90;;;;;;5070455;28;20665;-84
2020/12/09 03:57:33;;;;;;;0.50;0.50;;;2.60;99.90;;;;;;5070526;28;20223;-84
2020/12/09 03:59:59;;;;;;;0.50;0.50;;;2.60;99.90;;;;;;5070654;28;20223;-85
2020/12/09 04:02:30;;;;;;;0.50;0.50;;;2.50;99.90;;;;;;5070704;28;20208;-84
2020/12/09 04:04:59;;;;;;;0.50;0.50;;;2.50;99.90;;;;;;5070293;28;20204;-84
2020/12/09 04:07:28;;;;;;;0.50;0.50;;;2.50;99.90;;;;;;5070397;28;20204;-84
2020/12/09 04:09:54;;;;;;;0.50;0.50;;;2.60;99.90;;;;;;5070269;28;20274;-84
2020/12/09 04:12:23;;;;;;;0.50;0.50;;;2.50;99.90;;;;;;5070309;28;20204;-84
2020/12/09 04:14:50;;;;;;;0.50;0.50;;;2.50;99.90;;;;;;5070346;28;20199;-84
2020/12/09 04:17:16;;;;;;;0.50;0.50;;;2.50;99.90;;;;;;5070261;28;20200;-84
2020/12/09 04:19:42;;;;;;;0.50;0.50;;;2.50;99.90;;;;;;5070117;28;20647;-84
2020/12/09 04:22:09;;;;;;;0.50;0.50;;;2.60;99.90;;;;;;5070339;28;20739;-84
2020/12/09 04:24:35;;;;;;;0.50;0.50;;;2.50;99.90;;;;;;5070025;28;20277;-84
2020/12/09 04:27:02;;;;;;;0.50;0.50;;;2.50;99.90;;;;;;5069775;28;20196;-84
2020/12/09 04:29:28;;;;;;;0.50;0.50;;;2.50;99.90;;;;;;5069920;28;20280;-84
2020/12/09 04:31:54;;;;;;;0.50;0.50;;;2.50;99.90;;;;;;5069863;28;20200;-84
2020/12/09 04:34:21;;;;;;;0.50;0.50;;;2.60;99.90;;;;;;5069917;28;20662;-84
2020/12/09 04:36:48;;;;;;;0.50;0.50;;;2.60;99.90;;;;;;5069916;28;20204;-84
2020/12/09 04:39:15;;;;;;;0.50;0.50;;;2.50;99.90;;;;;;5069521;28;20258;-84
2020/12/09 04:41:41;;;;;;;0.50;0.50;;;2.50;99.90;;;;;;5069668;28;20196;-84
2020/12/09 04:44:08;;;;;;;0.50;0.50;;;2.50;99.90;;;;;;5069743;28;20233;-85
2020/12/09 04:46:37;;;;;;;0.50;0.50;;;2.40;99.90;;;;;;5070222;28;20591;-86
2020/12/09 04:49:13;;;;;;;0.50;0.50;;;2.50;99.90;;;;;;5069409;28;20711;-86
2020/12/09 04:52:15;;;;;;;0.50;0.50;;;2.50;99.90;;;;;;5069098;28;20218;-86
2020/12/09 04:54:47;;;;;;;0.50;0.50;;;2.50;99.90;;;;;;5069536;28;20196;-86
2020/12/09 04:57:27;;;;;;;0.50;0.50;;;2.60;99.90;;;;;;5069714;28;20206;-87
2020/12/09 05:00:00;;;;;;;0.60;0.60;;;2.50;99.90;;;;;;5069471;28;20195;-86
2020/12/09 05:02:45;;;;;;;0.50;0.50;;;2.50;99.90;;;;;;5069865;28;20199;-87
2020/12/09 05:05:12;;;;;;;0.50;0.50;;;2.60;99.90;;;;;;5069387;28;20204;-86
2020/12/09 05:07:40;;;;;;;0.50;0.50;;;2.60;99.90;;;;;;5069438;28;20209;-86
2020/12/09 05:10:08;;;;;;;0.50;0.50;;;2.50;99.90;;;;;;5069095;28;20273;-86
2020/12/09 05:12:42;;;;;;;0.50;0.50;;;2.50;99.90;;;;;;5069465;28;20265;-87
2020/12/09 05:15:15;;;;;;;0.50;0.50;;;2.50;99.90;;;;;;5069596;28;20466;-87
2020/12/09 05:18:09;;;;;;;0.50;0.50;;;2.60;99.90;;;;;;5069042;28;20282;-87
2020/12/09 05:20:38;;;;;;;0.50;0.50;;;2.60;99.90;;;;;;5069431;28;20239;-85
2020/12/09 05:23:05;;;;;;;0.50;0.50;;;2.60;99.90;;;;;;5067313;28;20230;-86
2020/12/09 05:25:33;;;;;;;0.50;0.50;;;2.60;99.90;;;;;;5068767;28;20592;-85
2020/12/09 05:28:00;;;;;;;0.50;0.50;;;2.60;99.90;;;;;;5069069;28;20570;-85
2020/12/09 05:30:51;;;;;;;0.50;0.50;;;2.60;99.90;;;;;;5067852;28;20199;-86
2020/12/09 05:33:20;;;;;;;0.50;0.50;;;2.60;99.90;;;;;;5069646;28;20662;-86
2020/12/09 05:35:56;;;;;;;0.50;0.50;;;2.50;99.90;;;;;;5069549;28;20618;-85
2020/12/09 05:38:22;;;;;;;0.50;0.50;;;2.40;99.90;;;;;;5069233;28;20774;-86
2020/12/09 05:40:53;;;;;;;0.57;0.57;;;2.40;99.90;;;;;;5069266;28;20903;-86
2020/12/09 05:43:19;;;;;;;0.50;0.50;;;2.40;99.90;;;;;;5069131;28;20195;-86
2020/12/09 05:45:48;;;;;;;0.50;0.50;;;2.40;99.90;;;;;;5069155;28;20284;-86
2020/12/09 05:48:19;;;;;;;0.50;0.50;;;2.50;99.90;;;;;;5069390;28;20203;-86
2020/12/09 05:50:48;;;;;;;0.50;0.50;;;2.50;99.90;;;;;;5069338;28;20203;-86
2020/12/09 05:53:15;;;;;;;0.50;0.50;;;2.50;99.90;;;;;;5069093;28;20649;-86
2020/12/09 05:55:42;;;;;;;0.50;0.50;;;2.50;99.90;;;;;;5069115;28;20666;-85
2020/12/09 05:58:23;;;;;;;0.50;0.50;;;2.40;99.90;;;;;;5069093;28;20220;-85
2020/12/09 06:01:13;;;;;;;0.50;0.50;;;2.40;99.90;;;;;;5069117;28;20719;-85
2020/12/09 06:03:43;;;;;;;0.50;0.50;;;2.40;99.90;;;;;;5068982;28;20240;-85
2020/12/09 06:06:19;;;;;;;0.50;0.50;;;2.40;99.90;;;;;;5068791;28;20200;-85
2020/12/09 06:08:47;;;;;;;0.50;0.50;;;2.40;99.90;;;;;;5069432;28;20243;-85
2020/12/09 06:11:18;;;;;;;0.50;0.50;;;2.40;99.90;;;;;;5072589;28;20261;-86
2020/12/09 06:13:45;;;;;;;0.50;0.50;;;2.30;99.90;;;;;;5073175;28;20257;-86
2020/12/09 06:16:12;;;;;;;0.50;0.50;;;2.30;99.90;;;;;;5072583;28;20650;-85
2020/12/09 06:18:42;;;;;;;0.50;0.50;;;2.30;99.90;;;;;;5071714;28;20220;-86
2020/12/09 06:21:08;;;;;;;0.50;0.50;;;2.40;99.90;;;;;;5072080;28;20200;-86
2020/12/09 06:23:37;;;;;;;0.50;0.50;;;2.50;99.90;;;;;;5072096;28;20231;-86
2020/12/09 06:26:04;;;;;;;0.50;0.50;;;2.40;99.90;;;;;;5071496;28;20200;-85
2020/12/09 06:28:32;;;;;;;0.50;0.50;;;2.40;99.90;;;;;;5072244;28;20265;-86
2020/12/09 06:31:09;;;;;;;0.50;0.50;;;2.40;99.90;;;;;;5073043;28;20200;-85
2020/12/09 06:33:42;;;;;;;0.50;0.50;;;2.30;99.90;;;;;;5070005;28;20639;-85
2020/12/09 06:36:18;;;;;;;0.50;0.50;;;2.40;99.90;;;;;;5071620;28;20537;-85
2020/12/09 06:39:15;;;;;;;0.50;0.50;;;2.40;99.90;;;;;;5069909;28;20674;-85
2020/12/09 06:42:02;;;;;;;0.50;0.50;;;2.40;99.90;;;;;;5070450;28;20215;-85
2020/12/09 06:44:32;;;;;;;0.50;0.50;;;2.40;99.90;;;;;;5071092;28;20196;-85
2020/12/09 06:47:00;;;;;;;0.50;0.50;;;2.40;99.90;;;;;;5071407;28;20204;-85
2020/12/09 06:49:40;;;;;;;0.50;0.50;;;2.40;99.90;;;;;;5071759;28;20199;-85
2020/12/09 06:52:26;;;;;;;0.50;0.50;;;2.30;99.90;;;;;;5070577;28;20203;-85
2020/12/09 06:54:53;;;;;;;0.50;0.50;;;2.40;99.90;;;;;;5069032;28;20211;-85
2020/12/09 06:57:21;;;;;;;0.50;0.50;;;2.40;99.90;;;;;;5072041;28;20211;-85
2020/12/09 06:59:48;;;;;;;0.50;0.50;;;2.40;99.90;;;;;;5072463;28;20231;-86
2020/12/09 07:02:27;;;;;;;0.50;0.50;;;2.40;99.90;;;;;;5068401;28;20733;-85
2020/12/09 07:05:06;;;;;;;0.50;0.50;;;2.50;99.90;;;;;;5070051;28;20687;-85
2020/12/09 07:07:35;;;;;;;0.50;0.50;;;2.40;99.90;;;;;;5072108;28;20226;-85
2020/12/09 07:10:03;;;;;;;0.50;0.50;;;2.30;99.90;;;;;;5071526;28;20250;-85
2020/12/09 07:12:29;;;;;;;0.50;0.50;;;2.30;99.90;;;;;;5070154;28;20199;-85
2020/12/09 07:14:57;;;;;;;0.50;0.50;;;2.30;99.90;;;;;;5069929;28;20257;-85
2020/12/09 07:17:27;;;;;;;0.50;0.50;;;2.30;99.90;;;;;;5072082;28;20257;-84
2020/12/09 07:19:55;;;;;;;0.50;0.50;;;2.30;99.90;;;;;;5071348;28;20251;-83
2020/12/09 07:22:26;;;;;;;0.50;0.50;;;2.20;99.90;;;;;;5069026;28;20202;-83
2020/12/09 07:24:52;;;;;;;0.50;0.50;;;2.20;99.90;;;;;;5071826;28;20203;-83
2020/12/09 07:27:20;;;;;;;0.50;0.50;;;2.20;99.90;;;;;;5071637;28;20196;-84
2020/12/09 07:29:48;;;;;;;0.50;0.50;;;2.20;99.90;;;;;;5071136;28;20196;-83
2020/12/09 07:32:18;;;;;;;0.50;0.50;;;2.20;99.90;;;;;;5069194;28;20207;-84
2020/12/09 07:34:55;;;;;;;0.50;0.50;;;2.30;99.90;;;;;;5070701;28;20218;-83
2020/12/09 07:37:23;;;;;;;0.50;0.50;;;2.30;99.90;;;;;;5069661;28;20203;-82
2020/12/09 07:39:53;;;;;;;0.50;0.50;;;2.30;99.90;;;;;;5068074;28;20217;-82
2020/12/09 07:42:21;;;;;;;0.50;0.50;;;2.30;99.90;;;;;;5070784;28;20219;-82
2020/12/09 07:44:49;;;;;;;0.50;0.50;;;2.40;99.90;;;;;;5070926;28;20237;-83
2020/12/09 07:47:22;;;;;;;0.50;0.50;;;2.30;99.90;;;;;;5071357;28;20603;-84
2020/12/09 07:49:52;;;;;;;0.50;0.50;;;2.40;99.90;;;;;;5070919;28;20188;-84
2020/12/09 07:52:24;;;;;;;0.50;0.50;;;2.50;99.90;;;;;;5068311;28;20578;-83
2020/12/09 07:54:55;;;;;;;0.50;0.50;;;2.50;99.90;;;;;;5072931;28;20199;-87
2020/12/09 07:57:23;;;;;;;0.50;0.50;;;2.50;99.90;;;;;;5070961;28;20203;-87
2020/12/09 07:59:54;;;;;;;0.50;0.50;;;2.50;99.90;;;;;;5071434;28;20562;-86
2020/12/09 08:02:21;;;;;;;0.50;0.50;;;2.40;99.90;;;;;;5071244;28;20712;-86
2020/12/09 08:04:48;;;;;;;0.50;0.50;;;2.30;99.90;;;;;;5070785;28;20227;-84
2020/12/09 08:07:16;;;;;;;0.50;0.50;;;2.20;99.90;;;;;;5071458;28;21130;-85
2020/12/09 08:09:43;;;;;;;0.50;0.50;;;2.20;99.90;;;;;;5071009;28;20215;-84
2020/12/09 08:12:09;;;;;;;0.50;0.50;;;2.20;99.90;;;;;;5070569;28;20496;-84
2020/12/09 08:14:35;;;;;;;0.50;0.50;;;2.20;99.90;;;;;;5070872;28;20203;-83
2020/12/09 08:17:01;;;;;;;0.50;0.50;;;2.30;99.90;;;;;;5070756;28;20199;-88
2020/12/09 08:19:27;;;;;;;0.50;0.50;;;2.30;99.90;;;;;;5071440;28;20300;-83
2020/12/09 08:22:04;;;;;;;0.50;0.50;;;2.40;99.90;;;;;;5070486;28;20253;-84
2020/12/09 08:24:31;;;;;;;0.50;0.50;;;2.40;99.90;;;;;;5070774;28;20570;-84
2020/12/09 08:27:01;;;;;;;0.50;0.50;;;2.40;99.90;;;;;;5070355;28;20257;-84
2020/12/09 08:29:27;;;;;;;0.50;0.50;;;2.50;99.90;;;;;;5072460;28;20283;-84
2020/12/09 08:32:02;;;;;;;0.50;0.50;;;2.50;99.90;;;;;;5069783;28;20199;-84
2020/12/09 08:34:28;;;;;;;0.50;0.50;;;2.40;99.90;;;;;;5071067;28;20199;-81
2020/12/09 08:36:55;;;;;;;0.50;0.50;;;2.40;99.90;;;;;;5070163;28;20329;-81
2020/12/09 08:39:21;;;;;;;0.50;0.50;;;2.40;99.90;;;;;;5070156;28;20251;-82
2020/12/09 08:41:47;;;;;;;0.50;0.50;;;2.40;99.90;;;;;;5070033;28;20651;-81
2020/12/09 08:44:14;;;;;;;0.50;0.50;;;2.40;99.90;;;;;;5069812;28;20204;-81
2020/12/09 08:46:40;;;;;;;0.50;0.50;;;2.50;99.90;;;;;;5067495;28;20226;-80
2020/12/09 08:49:06;;;;;;;0.50;0.50;;;2.40;99.90;;;;;;5070119;28;20253;-81
2020/12/09 08:51:34;;;;;;;0.50;0.50;;;2.40;99.90;;;;;;5069626;28;20231;-82
2020/12/09 08:54:02;;;;;;;0.50;0.50;;;2.40;99.90;;;;;;5069497;28;20204;-82
2020/12/09 08:56:31;;;;;;;0.50;0.50;;;2.50;99.90;;;;;;5068041;28;20549;-82
2020/12/09 08:58:59;;;;;;;0.50;0.50;;;2.50;99.90;;;;;;5069581;28;20634;-82
2020/12/09 09:01:26;;;;;;;0.50;0.50;;;2.50;99.90;;;;;;5067953;28;20203;-82
2020/12/09 09:03:55;;;;;;;0.50;0.50;;;2.50;99.90;;;;;;5069170;28;20234;-82
2020/12/09 09:06:21;;;;;;;0.50;0.50;;;2.50;99.90;;;;;;5069740;28;20544;-81
2020/12/09 09:08:47;;;;;;;0.50;0.50;;;2.50;99.90;;;;;;5073304;28;20223;-83
2020/12/09 09:11:20;;;;;;;0.50;0.50;;;2.50;99.90;;;;;;5068806;28;20606;-82
2020/12/09 09:13:46;;;;;;;0.50;0.50;;;2.40;99.90;;;;;;5069547;28;20819;-84
2020/12/09 09:16:15;;;;;;;0.50;0.50;;;2.50;99.90;;;;;;5067363;28;20204;-83
2020/12/09 09:18:42;;;;;;;0.50;0.50;;;2.60;99.90;;;;;;5069323;28;20272;-84
2020/12/09 09:21:09;;;;;;;0.50;0.50;;;2.50;99.90;;;;;;5069235;28;20626;-82
2020/12/09 09:23:35;;;;;;;0.50;0.50;;;2.60;99.90;;;;;;5069153;28;20199;-82
2020/12/09 09:26:01;;;;;;;0.50;0.50;;;2.70;99.90;;;;;;5069108;28;20893;-84
2020/12/09 09:28:27;;;;;;;0.50;0.50;;;2.70;99.90;;;;;;5069098;28;20191;-84
2020/12/09 09:30:53;;;;;;;0.50;0.50;;;2.70;99.90;;;;;;5069281;28;20651;-81
2020/12/09 09:33:19;;;;;;;0.50;0.50;;;2.70;99.90;;;;;;5069049;28;20257;-81
2020/12/09 09:35:46;;;;;;;0.50;0.50;;;2.70;99.90;;;;;;5068925;28;20254;-81
2020/12/09 09:38:12;;;;;;;0.50;0.50;;;2.70;99.90;;;;;;5068873;28;20234;-81
2020/12/09 09:40:38;;;;;;;0.50;0.50;;;2.70;99.90;;;;;;5068869;28;20231;-81
2020/12/09 09:43:04;;;;;;;0.50;0.50;;;2.70;99.90;;;;;;5068463;28;20256;-80
2020/12/09 09:45:30;;;;;;;0.50;0.50;;;2.70;99.90;;;;;;5068786;28;20249;-81
2020/12/09 09:47:56;;;;;;;0.50;0.50;;;2.70;99.90;;;;;;5065000;28;20554;-82
2020/12/09 09:50:22;;;;;;;0.50;0.50;;;2.70;99.90;;;;;;5067322;28;20273;-82
2020/12/09 09:52:49;;;;;;;0.50;0.50;;;2.70;99.90;;;;;;5069070;28;20207;-82
2020/12/09 09:55:16;;;;;;;0.50;0.50;;;2.70;99.90;;;;;;5068867;28;20576;-82
2020/12/09 09:57:42;;;;;;;0.50;0.50;;;2.70;99.90;;;;;;5049492;28;20208;-82
2020/12/09 10:00:08;;;;;;;0.50;0.50;;;2.70;99.90;;;;;;5048180;28;20224;-82
2020/12/09 10:02:34;;;;;;;0.50;0.50;;;2.70;99.90;;;;;;5043812;28;20277;-83
2020/12/09 10:05:00;;;;;;;0.50;0.50;;;2.80;99.90;;;;;;5051750;28;20223;-82
2020/12/09 10:07:26;;;;;;;0.50;0.50;;;2.80;99.90;;;;;;5067973;28;20253;-82
2020/12/09 10:09:54;;;;;;;0.50;0.50;;;2.70;99.90;;;;;;5067330;28;20589;-82
2020/12/09 10:12:20;;;;;;;0.50;0.50;;;2.70;99.90;;;;;;5067688;28;20207;-82
2020/12/09 10:14:46;;;;;;;0.50;0.50;;;2.80;99.90;;;;;;5067788;28;20225;-83
2020/12/09 10:17:12;;;;;;;0.40;0.40;;;2.80;99.90;;;;;;5067615;28;20211;-83
2020/12/09 10:19:39;;;;;;;0.50;0.50;;;2.80;99.90;;;;;;5067766;28;20285;-83
2020/12/09 10:22:05;;;;;;;0.50;0.50;;;2.80;99.90;;;;;;5067926;28;20253;-83
2020/12/09 10:24:31;;;;;;;0.50;0.50;;;2.80;99.90;;;;;;5065908;28;20199;-82
2020/12/09 10:26:58;;;;;;;0.50;0.50;;;2.80;99.90;;;;;;5067140;28;20231;-82
2020/12/09 10:29:25;;;;;;;0.50;0.50;;;2.80;99.90;;;;;;5067901;28;20286;-82
2020/12/09 10:31:51;;;;;;;0.50;0.50;;;2.70;99.90;;;;;;5067816;28;20191;-82
2020/12/09 10:34:19;;;;;;;0.50;0.50;;;2.70;99.90;;;;;;5067821;28;20302;-82
2020/12/09 10:36:48;;;;;;;0.50;0.50;;;2.80;99.90;;;;;;5067722;28;20269;-82
2020/12/09 10:39:16;;;;;;;0.50;0.50;;;2.70;99.90;;;;;;5067652;28;20219;-82
2020/12/09 10:41:42;;;;;;;0.50;0.50;;;2.80;99.90;;;;;;5067758;28;20203;-83
2020/12/09 10:44:10;;;;;;;0.50;0.50;;;2.80;99.90;;;;;;5067531;28;20257;-82
2020/12/09 10:46:38;;;;;;;0.50;0.50;;;2.80;99.90;;;;;;5067846;28;20603;-82
2020/12/09 10:49:06;;;;;;;0.50;0.50;;;2.80;99.90;;;;;;5067478;28;20203;-82
2020/12/09 10:51:32;;;;;;;0.50;0.50;;;2.80;99.90;;;;;;5067410;28;20246;-82
2020/12/09 10:53:59;;;;;;;0.50;0.50;;;2.80;99.90;;;;;;5067495;28;20239;-82
2020/12/09 10:56:26;;;;;;;0.50;0.50;;;2.80;99.90;;;;;;5070694;28;20207;-82
2020/12/09 10:58:52;;;;;;;0.50;0.50;;;2.90;99.90;;;;;;5070925;28;20709;-82
2020/12/09 11:01:19;;;;;;;0.50;0.50;;;2.90;99.90;;;;;;5070859;28;20268;-82
2020/12/09 11:03:46;;;;;;;0.50;0.50;;;2.90;99.90;;;;;;5071121;28;20240;-82
2020/12/09 11:06:12;;;;;;;0.50;0.50;;;2.90;99.90;;;;;;5064535;28;20285;-81
2020/12/09 11:08:38;;;;;;;0.50;0.50;;;2.90;99.90;;;;;;5061268;28;20219;-82
2020/12/09 11:11:05;;;;;;;0.50;0.50;;;3.00;99.90;;;;;;5069362;28;20203;-82
2020/12/09 11:13:31;;;;;;;0.50;0.50;;;3.00;99.90;;;;;;5053472;28;20262;-82
2020/12/09 11:15:57;;;;;;;0.50;0.50;;;3.00;99.90;;;;;;5051074;28;20232;-82
2020/12/09 11:18:26;;;;;;;0.50;0.50;;;3.00;99.90;;;;;;5050965;28;20208;-82
2020/12/09 11:20:53;;;;;;;0.50;0.50;;;3.00;99.90;;;;;;5050709;28;20254;-82
2020/12/09 11:23:19;;;;;;;0.50;0.50;;;3.00;99.90;;;;;;5050741;28;20208;-82
2020/12/09 11:25:45;;;;;;;0.50;0.50;;;3.00;99.90;;;;;;5068544;28;20204;-81
2020/12/09 11:28:11;;;;;;;0.50;0.50;;;3.00;99.90;;;;;;5069852;28;20203;-82
2020/12/09 11:30:37;;;;;;;0.40;0.40;;;3.00;99.90;;;;;;5068721;28;20674;-82
2020/12/09 11:33:03;;;;;;;0.50;0.50;;;3.10;99.90;;;;;;5070667;28;20200;-82
2020/12/09 11:35:30;;;;;;;0.50;0.50;;;3.10;99.90;;;;;;5070611;28;20203;-82
2020/12/09 11:37:56;;;;;;;0.50;0.50;;;3.10;99.90;;;;;;5070716;28;20200;-82
2020/12/09 11:40:25;;;;;;;0.50;0.50;;;3.10;99.90;;;;;;5070211;28;20702;-83
2020/12/09 11:42:55;;;;;;;0.50;0.50;;;3.10;99.90;;;;;;5070454;28;20210;-83
2020/12/09 11:45:21;;;;;;;0.50;0.50;;;3.10;99.90;;;;;;5070541;28;20265;-83
2020/12/09 11:47:47;;;;;;;0.50;0.50;;;3.10;99.90;;;;;;5070328;28;20681;-85
2020/12/09 11:50:13;;;;;;;0.50;0.50;;;3.00;99.90;;;;;;5070405;28;20231;-86
2020/12/09 11:52:40;;;;;;;0.50;0.50;;;3.10;99.90;;;;;;5070667;28;20192;-86
2020/12/09 11:55:06;;;;;;;0.50;0.50;;;3.10;99.90;;;;;;5070174;28;20472;-86
2020/12/09 11:57:33;;;;;;;0.50;0.50;;;3.10;99.90;;;;;;5070452;28;20200;-83
2020/12/09 11:59:59;;;;;;;0.50;0.50;;;3.10;99.90;;;;;;5070163;28;20247;-82
2020/12/09 12:02:25;;;;;;;0.50;0.50;;;3.10;99.90;;;;;;5070242;28;20196;-83
2020/12/09 12:04:55;;;;;;;0.50;0.50;;;3.10;99.90;;;;;;5068123;28;20255;-88
2020/12/09 12:07:21;;;;;;;0.50;0.50;;;3.10;99.90;;;;;;5069604;28;20199;-86
2020/12/09 12:09:48;;;;;;;0.50;0.50;;;3.10;99.90;;;;;;5064487;28;20228;-84
2020/12/09 12:12:14;;;;;;;0.50;0.50;;;3.10;99.90;;;;;;5064058;28;20203;-86
2020/12/09 12:14:40;;;;;;;0.50;0.50;;;3.10;99.90;;;;;;5067604;28;20265;-83
2020/12/09 12:17:08;;;;;;;0.50;0.50;;;3.10;99.90;;;;;;5069727;28;20265;-83
2020/12/09 12:19:34;;;;;;;0.50;0.50;;;3.10;99.90;;;;;;5069858;28;20242;-83
2020/12/09 12:22:01;;;;;;;0.50;0.50;;;3.10;99.90;;;;;;5067967;28;20204;-83
2020/12/09 12:24:27;;;;;;;0.50;0.50;;;3.10;99.90;;;;;;5069560;28;20199;-83
2020/12/09 12:26:54;;;;;;;0.50;0.50;;;3.10;99.90;;;;;;5069797;28;20207;-83
2020/12/09 12:29:20;;;;;;;0.50;0.50;;;3.10;99.90;;;;;;5069496;28;20192;-82
2020/12/09 12:31:47;;;;;;;0.50;0.50;;;3.00;99.90;;;;;;5069470;28;20203;-82
2020/12/09 12:34:13;;;;;;;0.50;0.50;;;3.00;99.90;;;;;;5069257;28;20720;-82
2020/12/09 12:36:39;;;;;;;0.50;0.50;;;3.00;99.90;;;;;;5067932;28;20199;-82
2020/12/09 12:39:09;;;;;;;0.50;0.50;;;3.00;99.90;;;;;;5069284;28;20594;-83
2020/12/09 12:41:35;;;;;;;0.50;0.50;;;3.00;99.90;;;;;;5069471;28;20236;-83
2020/12/09 12:44:03;;;;;;;0.50;0.50;;;2.90;99.90;;;;;;5069322;28;20289;-82
2020/12/09 12:46:29;;;;;;;0.50;0.50;;;2.90;99.90;;;;;;5069260;28;20248;-82
2020/12/09 12:48:55;;;;;;;0.50;0.50;;;3.00;99.90;;;;;;5069250;28;20199;-83
2020/12/09 12:51:22;;;;;;;0.50;0.50;;;3.00;99.90;;;;;;5069249;28;20723;-82
2020/12/09 12:53:48;;;;;;;0.50;0.50;;;3.00;99.90;;;;;;5069039;28;20249;-83
2020/12/09 12:56:18;;;;;;;0.50;0.50;;;3.00;99.90;;;;;;5069237;28;20200;-83
2020/12/09 12:58:48;;;;;;;0.50;0.50;;;3.00;99.90;;;;;;5069279;28;20225;-82
2020/12/09 13:01:16;;;;;;;0.50;0.50;;;3.00;99.90;;;;;;5069050;28;20195;-81